createdAt,value
2019-05-02T00:01:04.000Z,27.2
2019-05-02T00:03:04.000Z,27.3
2019-05-02T00:04:49.000Z,27.2
2019-05-02T00:06:04.000Z,27
2019-05-02T00:08:04.000Z,26.9
2019-05-02T00:09:49.000Z,26.9
2019-05-02T00:53:06.000Z,25.1
2019-05-02T00:54:21.000Z,25.1
2019-05-02T00:56:06.000Z,25.3
2019-05-02T00:57:21.000Z,25.3
2019-05-02T00:58:21.000Z,25.5
2019-05-02T01:00:21.000Z,25.8
2019-05-02T01:01:21.000Z,26
2019-05-02T01:03:06.000Z,26.1
2019-05-02T01:04:21.000Z,26.1
2019-05-02T01:05:21.000Z,26.1
2019-05-02T01:07:21.000Z,26.2
2019-05-02T01:08:21.000Z,26.2
2019-05-02T01:10:21.000Z,26.3
2019-05-02T01:11:21.000Z,26.3
2019-05-02T01:13:21.000Z,26.4
2019-05-02T01:14:21.000Z,26.5
2019-05-02T01:16:21.000Z,26.6
2019-05-02T01:17:21.000Z,26.7
2019-05-02T01:19:21.000Z,26.7
2019-05-02T01:21:21.000Z,26.8
2019-05-02T01:23:21.000Z,26.7
2019-05-02T01:24:21.000Z,26.6
2019-05-02T01:26:21.000Z,26.6
2019-05-02T01:27:21.000Z,26.5
2019-05-02T01:29:21.000Z,26.5
2019-05-02T01:31:21.000Z,26.4
2019-05-02T01:32:21.000Z,26.5
2019-05-02T01:34:21.000Z,26.5
2019-05-02T01:35:21.000Z,26.6
2019-05-02T01:37:21.000Z,26.7
2019-05-02T01:38:21.000Z,26.7
2019-05-02T01:40:21.000Z,26.6
2019-05-02T01:41:21.000Z,26.7
2019-05-02T01:43:21.000Z,26.7
2019-05-02T01:45:06.000Z,26.7
2019-05-02T01:46:21.000Z,26.6
2019-05-02T01:48:06.000Z,26.5
2019-05-02T01:49:21.000Z,26.4
2019-05-02T01:51:06.000Z,26.3
2019-05-02T01:52:21.000Z,26.2
2019-05-02T01:54:06.000Z,26.2
2019-05-02T01:55:21.000Z,26.1
2019-05-02T01:57:06.000Z,26.1
2019-05-02T01:58:21.000Z,26
2019-05-02T02:00:06.000Z,26
2019-05-02T02:01:21.000Z,26
2019-05-02T02:03:06.000Z,26
2019-05-02T02:04:21.000Z,25.9
2019-05-02T02:06:07.000Z,25.9
2019-05-02T02:07:21.000Z,25.8
2019-05-02T02:09:06.000Z,25.9
2019-05-02T02:10:21.000Z,25.9
2019-05-02T02:11:21.000Z,26
2019-05-02T02:13:21.000Z,26.2
2019-05-02T02:15:21.000Z,26.3
2019-05-02T02:16:21.000Z,26.2
2019-05-02T02:18:21.000Z,26.3
2019-05-02T02:20:06.000Z,26.2
2019-05-02T02:21:21.000Z,26.2
2019-05-02T02:23:06.000Z,26.1
2019-05-02T02:24:21.000Z,26.1
2019-05-02T02:26:06.000Z,26
2019-05-02T02:27:21.000Z,26
2019-05-02T02:29:06.000Z,26
2019-05-02T02:30:21.000Z,25.9
2019-05-02T02:32:21.000Z,25.9
2019-05-02T02:34:21.000Z,25.8
2019-05-02T02:36:21.000Z,25.8
2019-05-02T02:38:21.000Z,25.8
2019-05-02T02:40:06.000Z,25.8
2019-05-02T02:41:13.000Z,25.8
2019-05-02T02:42:21.000Z,25.8
2019-05-02T02:44:21.000Z,25.8
2019-05-02T02:46:06.000Z,25.9
2019-05-02T02:47:06.000Z,26
2019-05-02T02:48:21.000Z,26
2019-05-02T02:50:21.000Z,26.1
2019-05-02T02:52:06.000Z,26.1
2019-05-02T02:53:21.000Z,26.2
2019-05-02T02:55:06.000Z,26.2
2019-05-02T02:56:21.000Z,26.3
2019-05-02T02:57:21.000Z,26.3
2019-05-02T02:58:21.000Z,26.3
2019-05-02T03:00:08.000Z,26.4
2019-05-02T03:01:21.000Z,26.3
2019-05-02T03:03:21.000Z,26.2
2019-05-02T03:05:06.000Z,26.1
2019-05-02T03:06:07.000Z,26
2019-05-02T03:07:21.000Z,26
2019-05-02T03:09:21.000Z,25.9
2019-05-02T03:11:21.000Z,25.8
2019-05-02T03:12:21.000Z,25.8
2019-05-02T03:13:21.000Z,25.9
2019-05-02T03:15:21.000Z,26
2019-05-02T03:17:21.000Z,26
2019-05-02T03:18:21.000Z,26
2019-05-02T03:20:21.000Z,26
2019-05-02T03:22:06.000Z,26.1
2019-05-02T03:23:21.000Z,26.2
2019-05-02T03:25:21.000Z,26.2
2019-05-02T03:27:21.000Z,26.2
2019-05-02T03:29:21.000Z,26.2
2019-05-02T03:31:21.000Z,26.2
2019-05-02T03:32:21.000Z,26.2
2019-05-02T03:34:06.000Z,26.1
2019-05-02T03:35:21.000Z,26.1
2019-05-02T03:37:10.000Z,26.1
2019-05-02T03:38:21.000Z,26.1
2019-05-02T03:40:21.000Z,26.1
2019-05-02T03:42:21.000Z,26
2019-05-02T03:43:21.000Z,26.1
2019-05-02T03:45:21.000Z,26.1
2019-05-02T03:47:21.000Z,26.1
2019-05-02T03:49:06.000Z,26.2
2019-05-02T03:50:09.000Z,26.2
2019-05-02T03:51:19.000Z,26.1
2019-05-02T03:52:21.000Z,26.1
2019-05-02T03:54:06.000Z,26.1
2019-05-02T03:55:21.000Z,26.1
2019-05-02T03:57:21.000Z,26
2019-05-02T03:59:21.000Z,26
2019-05-02T04:01:21.000Z,26
2019-05-02T04:02:21.000Z,26
2019-05-02T04:03:21.000Z,26.1
2019-05-02T04:05:21.000Z,26.3
2019-05-02T04:07:21.000Z,26.4
2019-05-02T04:09:21.000Z,26.4
2019-05-02T04:11:21.000Z,26.4
2019-05-02T04:13:05.000Z,26.5
2019-05-02T04:14:06.000Z,26.5
2019-05-02T04:15:09.000Z,26.5
2019-05-02T04:16:14.000Z,26.4
2019-05-02T04:17:21.000Z,26.4
2019-05-02T04:19:21.000Z,26.3
2019-05-02T04:21:21.000Z,26.3
2019-05-02T04:23:21.000Z,26.2
2019-05-02T04:25:05.000Z,26.1
2019-05-02T04:26:12.000Z,26.1
2019-05-02T04:27:21.000Z,26.1
2019-05-02T04:29:21.000Z,26
2019-05-02T04:31:21.000Z,26
2019-05-02T04:33:21.000Z,26
2019-05-02T04:35:21.000Z,26.1
2019-05-02T04:37:21.000Z,26.2
2019-05-02T04:39:14.000Z,26.2
2019-05-02T04:41:05.000Z,26.2
2019-05-02T04:42:15.000Z,26.1
2019-05-02T04:44:06.000Z,26
2019-05-02T04:45:21.000Z,25.9
2019-05-02T04:47:06.000Z,25.9
2019-05-02T04:48:07.000Z,25.9
2019-05-02T04:50:17.000Z,26
2019-05-02T04:52:06.000Z,26
2019-05-02T04:53:07.000Z,26
2019-05-02T04:54:08.000Z,26
2019-05-02T04:55:20.000Z,26
2019-05-02T04:57:08.000Z,26
2019-05-02T04:59:06.000Z,26
2019-05-02T05:00:11.000Z,26
2019-05-02T05:01:21.000Z,26
2019-05-02T05:03:06.000Z,26.1
2019-05-02T05:04:07.000Z,26.1
2019-05-02T05:06:11.000Z,26.1
2019-05-02T05:08:07.000Z,26
2019-05-02T05:10:07.000Z,26
2019-05-02T05:12:06.000Z,26
2019-05-02T05:14:09.000Z,26.1
2019-05-02T05:16:09.000Z,26.1
2019-05-02T05:18:12.000Z,26.1
2019-05-02T05:20:06.000Z,26
2019-05-02T05:21:10.000Z,26
2019-05-02T05:23:08.000Z,26
2019-05-02T05:25:07.000Z,26.1
2019-05-02T05:27:06.000Z,26.1
2019-05-02T05:28:08.000Z,26
2019-05-02T05:30:06.000Z,26.1
2019-05-02T05:31:07.000Z,26.1
2019-05-02T05:32:09.000Z,26.1
2019-05-02T05:34:06.000Z,25.5
2019-05-02T05:35:11.000Z,25.2
2019-05-02T05:37:06.000Z,24.7
2019-05-02T05:39:09.000Z,24.1
2019-05-02T05:41:06.000Z,23.6
2019-05-02T06:24:50.000Z,25.6
2019-05-02T06:26:50.000Z,25.9
2019-05-02T06:28:35.000Z,26
2019-05-02T06:29:50.000Z,26.1
2019-05-02T06:31:35.000Z,26.2
2019-05-02T06:32:50.000Z,26.2
2019-05-02T06:34:35.000Z,26.3
2019-05-02T06:35:50.000Z,26.4
2019-05-02T06:37:50.000Z,26.4
2019-05-02T06:38:50.000Z,26.5
2019-05-02T06:39:50.000Z,26.5
2019-05-02T06:41:35.000Z,26.6
2019-05-02T06:42:37.000Z,26.7
2019-05-02T06:43:50.000Z,26.8
2019-05-02T06:44:50.000Z,27
2019-05-02T06:46:50.000Z,27.1
2019-05-02T06:48:50.000Z,27.2
2019-05-02T06:49:50.000Z,27.2
2019-05-02T06:51:50.000Z,27.3
2019-05-02T06:53:50.000Z,27.3
2019-05-02T06:54:50.000Z,27.3
2019-05-02T06:56:35.000Z,27.4
2019-05-02T06:57:50.000Z,27.4
2019-05-02T06:59:50.000Z,27.3
2019-05-02T07:01:50.000Z,27.3
2019-05-02T07:02:50.000Z,27.3
2019-05-02T07:04:50.000Z,27.4
2019-05-02T07:06:35.000Z,27.4
2019-05-02T07:07:37.000Z,27.4
2019-05-02T07:09:35.000Z,27.2
2019-05-02T07:53:03.000Z,26.9
2019-05-02T07:54:18.000Z,27
2019-05-02T07:56:18.000Z,27.1
2019-05-02T07:57:18.000Z,27.3
2019-05-02T07:59:18.000Z,27.6
2019-05-02T08:00:18.000Z,27.8
2019-05-02T08:02:18.000Z,28
2019-05-02T08:04:03.000Z,28
2019-05-02T08:05:18.000Z,28
2019-05-02T08:07:18.000Z,28
2019-05-02T08:09:03.000Z,28.1
2019-05-02T08:10:18.000Z,28.1
2019-05-02T08:12:18.000Z,28.1
2019-05-02T08:13:18.000Z,28.3
2019-05-02T08:15:03.000Z,28.5
2019-05-02T08:16:18.000Z,28.5
2019-05-02T08:18:18.000Z,28.5
2019-05-02T08:20:07.000Z,28.6
2019-05-02T08:21:18.000Z,28.7
2019-05-02T08:23:18.000Z,28.9
2019-05-02T08:24:18.000Z,29
2019-05-02T08:25:18.000Z,29
2019-05-02T08:26:18.000Z,29.1
2019-05-02T08:28:02.000Z,29.2
2019-05-02T08:29:18.000Z,29.2
2019-05-02T08:31:18.000Z,29
2019-05-02T08:32:18.000Z,29
2019-05-02T08:33:18.000Z,29
2019-05-02T08:35:18.000Z,29.1
2019-05-02T08:36:18.000Z,29.1
2019-05-02T08:38:18.000Z,29.3
2019-05-02T08:39:18.000Z,29.3
2019-05-02T08:41:18.000Z,29.3
2019-05-02T08:42:18.000Z,29.3
2019-05-02T08:44:18.000Z,29.3
2019-05-02T08:45:18.000Z,29.4
2019-05-02T08:46:18.000Z,29.4
2019-05-02T08:47:18.000Z,29.5
2019-05-02T08:49:18.000Z,29.5
2019-05-02T08:50:18.000Z,29.4
2019-05-02T08:51:18.000Z,29.4
2019-05-02T08:52:18.000Z,29.5
2019-05-02T08:54:18.000Z,29.5
2019-05-02T08:56:18.000Z,29.6
2019-05-02T08:57:18.000Z,29.5
2019-05-02T08:59:18.000Z,29.5
2019-05-02T09:00:18.000Z,29.5
2019-05-02T09:02:18.000Z,29.6
2019-05-02T09:04:18.000Z,29.7
2019-05-02T09:06:05.000Z,29.9
2019-05-02T09:08:18.000Z,29.9
2019-05-02T09:10:05.000Z,30
2019-05-02T09:11:18.000Z,30
2019-05-02T09:13:18.000Z,30.1
2019-05-02T09:14:18.000Z,30.2
2019-05-02T09:15:18.000Z,30.3
2019-05-02T09:17:03.000Z,30.4
2019-05-02T09:18:18.000Z,30.5
2019-05-02T09:20:14.000Z,30.5
2019-05-02T09:21:18.000Z,30.5
2019-05-02T09:23:18.000Z,30.6
2019-05-02T09:25:18.000Z,30.8
2019-05-02T09:26:18.000Z,31
2019-05-02T09:28:18.000Z,30.9
2019-05-02T09:30:18.000Z,30.5
2019-05-02T09:32:18.000Z,30.1
2019-05-02T09:34:18.000Z,29.8
2019-05-02T09:36:18.000Z,29.5
2019-05-02T09:37:18.000Z,29.5
2019-05-02T09:38:18.000Z,29.6
2019-05-02T09:39:18.000Z,29.7
2019-05-02T09:41:18.000Z,29.7
2019-05-02T09:43:03.000Z,29.6
2019-05-02T09:44:18.000Z,29.4
2019-05-02T09:45:18.000Z,29.4
2019-05-02T09:47:18.000Z,29.4
2019-05-02T09:49:03.000Z,29.4
2019-05-02T09:50:18.000Z,29.3
2019-05-02T09:52:18.000Z,29.2
2019-05-02T09:53:18.000Z,29.1
2019-05-02T09:55:18.000Z,29.1
2019-05-02T09:56:18.000Z,29.1
2019-05-02T09:58:18.000Z,29.3
2019-05-02T10:00:18.000Z,29.4
2019-05-02T10:02:18.000Z,29.4
2019-05-02T10:03:18.000Z,29.4
2019-05-02T10:05:03.000Z,29.6
2019-05-02T10:07:18.000Z,29.5
2019-05-02T10:09:18.000Z,29.5
2019-05-02T10:11:03.000Z,29.4
2019-05-02T10:12:18.000Z,29.4
2019-05-02T10:13:18.000Z,29.4
2019-05-02T10:15:03.000Z,29.6
2019-05-02T10:16:03.000Z,29.6
2019-05-02T10:17:07.000Z,29.6
2019-05-02T10:18:10.000Z,29.6
2019-05-02T10:20:03.000Z,29.4
2019-05-02T10:21:07.000Z,29.4
2019-05-02T10:22:18.000Z,29.3
2019-05-02T10:24:18.000Z,29.2
2019-05-02T10:25:18.000Z,29.3
2019-05-02T10:27:03.000Z,29.4
2019-05-02T10:28:18.000Z,29.3
2019-05-02T10:30:03.000Z,29.3
2019-05-02T10:31:18.000Z,29.3
2019-05-02T10:33:18.000Z,29.2
2019-05-02T10:35:18.000Z,29.2
2019-05-02T10:37:18.000Z,29.3
2019-05-02T10:39:03.000Z,29.4
2019-05-02T10:40:03.000Z,29.4
2019-05-02T10:41:04.000Z,29.4
2019-05-02T10:42:18.000Z,29.2
2019-05-02T10:43:18.000Z,29.4
2019-05-02T10:45:03.000Z,29.6
2019-05-02T10:46:18.000Z,29.5
2019-05-02T10:48:18.000Z,29.5
2019-05-02T10:50:03.000Z,29.5
2019-05-02T10:51:18.000Z,29.5
2019-05-02T10:52:18.000Z,29.5
2019-05-02T10:54:18.000Z,29.5
2019-05-02T10:55:18.000Z,29.5
2019-05-02T10:56:18.000Z,29.5
2019-05-02T10:57:18.000Z,29.5
2019-05-02T10:58:18.000Z,29.6
2019-05-02T11:00:18.000Z,29.7
2019-05-02T11:01:18.000Z,29.8
2019-05-02T11:03:18.000Z,29.9
2019-05-02T11:05:18.000Z,30
2019-05-02T11:07:18.000Z,29.8
2019-05-02T11:09:06.000Z,29.6
2019-05-02T11:10:06.000Z,29.5
2019-05-02T11:12:18.000Z,29.4
2019-05-02T11:13:18.000Z,29.4
2019-05-02T11:15:18.000Z,29.4
2019-05-02T11:16:18.000Z,29.5
2019-05-02T11:18:03.000Z,29.6
2019-05-02T11:19:18.000Z,29.6
2019-05-02T11:20:18.000Z,29.7
2019-05-02T11:22:18.000Z,29.9
2019-05-02T11:23:18.000Z,29.9
2019-05-02T11:25:03.000Z,29.9
2019-05-02T11:26:18.000Z,29.9
2019-05-02T11:27:18.000Z,29.8
2019-05-02T11:29:03.000Z,29.8
2019-05-02T11:30:18.000Z,29.8
2019-05-02T11:32:18.000Z,29.6
2019-05-02T11:33:18.000Z,29.6
2019-05-02T11:35:18.000Z,29.7
2019-05-02T11:37:18.000Z,29.7
2019-05-02T11:39:17.000Z,29.7
2019-05-02T11:41:18.000Z,29.5
2019-05-02T11:42:18.000Z,29.5
2019-05-02T11:44:18.000Z,29.4
2019-05-02T11:46:03.000Z,29.4
2019-05-02T11:47:18.000Z,29.3
2019-05-02T11:49:18.000Z,29.1
2019-05-02T11:50:18.000Z,29.1
2019-05-02T11:52:03.000Z,29
2019-05-02T11:53:12.000Z,28.8
2019-05-02T11:55:18.000Z,28.2
2019-05-02T11:57:18.000Z,27.9
2019-05-02T11:59:02.000Z,27.8
2019-05-02T12:00:07.000Z,27.7
2019-05-02T12:02:18.000Z,27.6
2019-05-02T12:03:18.000Z,27.8
2019-05-02T12:05:18.000Z,27.9
2019-05-02T12:07:02.000Z,28
2019-05-02T12:08:07.000Z,27.9
2019-05-02T12:10:03.000Z,27.6
2019-05-02T12:12:18.000Z,27.4
2019-05-02T12:14:18.000Z,27.3
2019-05-02T12:16:18.000Z,27.4
2019-05-02T12:17:18.000Z,27.4
2019-05-02T12:18:18.000Z,27.6
2019-05-02T12:20:18.000Z,27.5
2019-05-02T12:21:18.000Z,27.5
2019-05-02T12:23:03.000Z,27.4
2019-05-02T12:24:03.000Z,27.4
2019-05-02T12:25:18.000Z,27.3
2019-05-02T12:26:18.000Z,27.4
2019-05-02T12:28:02.000Z,27.5
2019-05-02T12:29:18.000Z,27.5
2019-05-02T12:30:18.000Z,27.5
2019-05-02T12:32:18.000Z,27.5
2019-05-02T12:34:18.000Z,27.5
2019-05-02T12:36:02.000Z,27.5
2019-05-02T12:37:18.000Z,27.5
2019-05-02T12:38:18.000Z,27.5
2019-05-02T12:40:18.000Z,27.4
2019-05-02T12:41:18.000Z,27.4
2019-05-02T12:43:18.000Z,27.4
2019-05-02T12:44:18.000Z,27.5
2019-05-02T12:46:03.000Z,27.7
2019-05-02T12:47:18.000Z,27.7
2019-05-02T12:49:18.000Z,27.9
2019-05-02T12:51:18.000Z,27.9
2019-05-02T12:52:18.000Z,28
2019-05-02T12:54:18.000Z,28
2019-05-02T12:55:18.000Z,28.1
2019-05-02T12:56:18.000Z,28.1
2019-05-02T12:58:18.000Z,28.1
2019-05-02T13:00:18.000Z,27.9
2019-05-02T13:02:18.000Z,27.6
2019-05-02T13:03:18.000Z,27.4
2019-05-02T13:04:18.000Z,27.3
2019-05-02T13:05:18.000Z,27.3
2019-05-02T13:07:18.000Z,27.2
2019-05-02T13:09:18.000Z,27.3
2019-05-02T13:11:03.000Z,27.4
2019-05-02T13:13:18.000Z,27.6
2019-05-02T13:14:18.000Z,27.8
2019-05-02T13:16:03.000Z,28
2019-05-02T13:18:18.000Z,27.9
2019-05-02T13:20:03.000Z,27.9
2019-05-02T13:21:07.000Z,27.8
2019-05-02T13:22:18.000Z,27.7
2019-05-02T13:23:18.000Z,27.8
2019-05-02T13:25:18.000Z,27.9
2019-05-02T13:27:03.000Z,28
2019-05-02T13:28:18.000Z,28
2019-05-02T13:30:18.000Z,28
2019-05-02T13:32:18.000Z,28
2019-05-02T13:33:18.000Z,28.1
2019-05-02T13:35:18.000Z,28.3
2019-05-02T13:36:18.000Z,28.3
2019-05-02T13:37:18.000Z,28.4
2019-05-02T13:39:18.000Z,28.6
2019-05-02T13:41:18.000Z,28.8
2019-05-02T13:43:03.000Z,28.9
2019-05-02T13:44:18.000Z,28.9
2019-05-02T13:45:18.000Z,29
2019-05-02T13:46:18.000Z,29.1
2019-05-02T13:47:18.000Z,29.2
2019-05-02T13:49:18.000Z,29.2
2019-05-02T13:51:03.000Z,29.2
2019-05-02T13:52:18.000Z,29.1
2019-05-02T13:54:18.000Z,29.1
2019-05-02T13:56:18.000Z,29.1
2019-05-02T13:58:18.000Z,29.1
2019-05-02T14:00:18.000Z,29
2019-05-02T14:02:18.000Z,29
2019-05-02T14:04:03.000Z,29
2019-05-02T14:05:18.000Z,28.9
2019-05-02T14:06:18.000Z,28.9
2019-05-02T14:08:18.000Z,28.8
2019-05-02T14:10:18.000Z,28.7
2019-05-02T14:11:18.000Z,28.6
2019-05-02T14:12:18.000Z,28.7
2019-05-02T14:14:18.000Z,28.9
2019-05-02T14:15:18.000Z,29
2019-05-02T14:17:18.000Z,29.1
2019-05-02T14:19:03.000Z,29.1
2019-05-02T14:20:03.000Z,29.1
2019-05-02T14:21:18.000Z,29
2019-05-02T14:22:18.000Z,29
2019-05-02T14:23:18.000Z,29
2019-05-02T14:25:18.000Z,29.1
2019-05-02T14:27:03.000Z,29.1
2019-05-02T14:28:18.000Z,29
2019-05-02T14:30:18.000Z,28.9
2019-05-02T14:31:18.000Z,28.8
2019-05-02T14:32:18.000Z,28.8
2019-05-02T14:34:18.000Z,28.8
2019-05-02T14:35:18.000Z,28.8
2019-05-02T14:37:18.000Z,28.9
2019-05-02T14:38:18.000Z,28.9
2019-05-02T14:39:18.000Z,29
2019-05-02T14:40:18.000Z,29
2019-05-02T14:42:18.000Z,29.1
2019-05-02T14:44:18.000Z,29
2019-05-02T14:46:18.000Z,28.9
2019-05-02T14:47:18.000Z,28.9
2019-05-02T14:49:18.000Z,28.7
2019-05-02T14:51:18.000Z,28.6
2019-05-02T14:53:18.000Z,28.4
2019-05-02T14:55:03.000Z,28.2
2019-05-02T14:56:05.000Z,28.2
2019-05-02T14:57:18.000Z,28.1
2019-05-02T14:59:18.000Z,28.1
2019-05-02T15:01:18.000Z,28.1
2019-05-02T15:03:18.000Z,28
2019-05-02T15:05:18.000Z,28
2019-05-02T15:07:18.000Z,27.9
2019-05-02T15:09:18.000Z,27.8
2019-05-02T15:11:18.000Z,27.7
2019-05-02T15:13:18.000Z,27.8
2019-05-02T15:15:18.000Z,28
2019-05-02T15:17:18.000Z,28.1
2019-05-02T15:19:18.000Z,28.1
2019-05-02T15:21:03.000Z,28.2
2019-05-02T15:22:18.000Z,28.1
2019-05-02T15:24:18.000Z,28.1
2019-05-02T15:26:18.000Z,28
2019-05-02T15:28:18.000Z,28.1
2019-05-02T15:30:03.000Z,28.1
2019-05-02T15:31:04.000Z,28.1
2019-05-02T15:32:07.000Z,28.1
2019-05-02T15:34:03.000Z,28
2019-05-02T16:17:09.000Z,27.3
2019-05-02T16:18:24.000Z,27.4
2019-05-02T16:20:09.000Z,27.6
2019-05-02T16:21:11.000Z,27.6
2019-05-02T16:23:09.000Z,27.7
2019-05-02T16:24:13.000Z,27.7
2019-05-02T16:26:24.000Z,27.7
2019-05-02T16:28:24.000Z,27.8
2019-05-02T16:30:12.000Z,27.9
2019-05-02T16:31:24.000Z,28
2019-05-02T16:33:09.000Z,28.1
2019-05-02T16:34:24.000Z,28.1
2019-05-02T16:36:24.000Z,28.1
2019-05-02T16:38:24.000Z,28
2019-05-02T16:40:09.000Z,28
2019-05-02T16:41:10.000Z,27.9
2019-05-02T16:43:09.000Z,27.9
2019-05-02T16:44:24.000Z,27.9
2019-05-02T16:46:09.000Z,27.9
2019-05-02T16:47:24.000Z,27.9
2019-05-02T16:49:09.000Z,27.9
2019-05-02T16:50:11.000Z,27.9
2019-05-02T16:51:24.000Z,27.8
2019-05-02T16:52:24.000Z,27.8
2019-05-02T16:54:24.000Z,27.9
2019-05-02T16:56:09.000Z,27.9
2019-05-02T16:57:24.000Z,27.9
2019-05-02T16:59:24.000Z,27.9
2019-05-02T17:01:09.000Z,27.9
2019-05-02T17:02:11.000Z,27.8
2019-05-02T17:04:24.000Z,27.8
2019-05-02T17:06:09.000Z,27.7
2019-05-02T17:08:16.000Z,27.7
2019-05-02T17:10:09.000Z,27.6
2019-05-02T17:12:11.000Z,27.5
2019-05-02T17:13:24.000Z,27.4
2019-05-02T17:15:09.000Z,27.4
2019-05-02T17:58:43.000Z,26.6
2019-05-02T17:59:57.000Z,26.7
2019-05-02T18:01:57.000Z,26.9
2019-05-02T18:03:57.000Z,27.1
2019-05-02T18:05:57.000Z,27.2
2019-05-02T18:07:57.000Z,27.4
2019-05-02T18:09:57.000Z,27.5
2019-05-02T18:10:57.000Z,27.5
2019-05-02T18:11:57.000Z,27.6
2019-05-02T18:13:42.000Z,27.6
2019-05-02T18:14:57.000Z,27.7
2019-05-02T18:16:42.000Z,27.7
2019-05-02T18:17:57.000Z,27.7
2019-05-02T18:19:57.000Z,27.6
2019-05-02T18:21:57.000Z,27.5
2019-05-02T18:23:57.000Z,27.4
2019-05-02T18:25:57.000Z,27.4
2019-05-02T18:27:57.000Z,27.3
2019-05-02T18:29:42.000Z,27.3
2019-05-02T18:30:57.000Z,27.3
2019-05-02T18:32:57.000Z,27.3
2019-05-02T18:33:57.000Z,27.3
2019-05-02T18:34:57.000Z,27.4
2019-05-02T18:36:57.000Z,27.5
2019-05-02T18:38:57.000Z,27.5
2019-05-02T18:40:57.000Z,27.4
2019-05-02T18:42:57.000Z,27.4
2019-05-02T18:44:57.000Z,27.3
2019-05-02T18:45:57.000Z,27.4
2019-05-02T18:47:57.000Z,27.5
2019-05-02T18:49:57.000Z,27.6
2019-05-02T18:51:42.000Z,27.5
2019-05-02T18:52:48.000Z,27.4
2019-05-02T18:53:57.000Z,27.5
2019-05-02T18:55:57.000Z,27.5
2019-05-02T18:57:57.000Z,27.5
2019-05-02T18:59:57.000Z,27.4
2019-05-02T19:00:57.000Z,27.5
2019-05-02T19:02:42.000Z,27.6
2019-05-02T19:03:42.000Z,27.6
2019-05-02T19:04:57.000Z,27.6
2019-05-02T19:06:57.000Z,27.6
2019-05-02T19:08:42.000Z,27.6
2019-05-02T19:09:50.000Z,27.5
2019-05-02T19:10:57.000Z,27.5
2019-05-02T19:11:57.000Z,27.4
2019-05-02T19:13:43.000Z,27.4
2019-05-02T19:57:14.000Z,26.2
2019-05-02T19:58:29.000Z,26.3
2019-05-02T20:00:29.000Z,26.5
2019-05-02T20:02:29.000Z,26.7
2019-05-02T20:04:29.000Z,26.9
2019-05-02T20:06:29.000Z,27.1
2019-05-02T20:07:29.000Z,27.2
2019-05-02T20:09:29.000Z,27.4
2019-05-02T20:11:29.000Z,27.5
2019-05-02T20:13:13.000Z,27.4
2019-05-02T20:14:29.000Z,27.4
2019-05-02T20:16:13.000Z,27.4
2019-05-02T20:17:14.000Z,27.4
2019-05-02T20:18:29.000Z,27.3
2019-05-02T20:20:29.000Z,27.3
2019-05-02T20:22:29.000Z,27.3
2019-05-02T20:24:14.000Z,27.3
2019-05-02T21:08:31.000Z,26.1
2019-05-02T21:09:32.000Z,26.1
2019-05-02T21:11:32.000Z,26.2
2019-05-02T21:13:32.000Z,26.4
2019-05-02T21:14:46.000Z,26.5
2019-05-02T21:16:31.000Z,26.8
2019-05-02T21:17:31.000Z,26.8
2019-05-02T21:18:32.000Z,26.9
2019-05-02T21:20:32.000Z,26.9
2019-05-02T21:22:32.000Z,27
2019-05-02T21:24:32.000Z,27
2019-05-02T21:26:32.000Z,27
2019-05-02T21:28:31.000Z,27
2019-05-02T21:30:31.000Z,27.1
2019-05-02T21:32:31.000Z,27.1
2019-05-02T21:34:46.000Z,27.1
2019-05-02T21:36:31.000Z,27.1
2019-05-02T21:37:31.000Z,27.1
2019-05-02T21:39:31.000Z,27.1
2019-05-02T21:41:32.000Z,27.1
2019-05-02T21:42:46.000Z,27.1
2019-05-02T21:44:46.000Z,27.2
2019-05-02T21:46:31.000Z,27.3
2019-05-02T21:47:46.000Z,27.4
2019-05-02T21:49:31.000Z,27.5
2019-05-02T21:50:31.000Z,27.5
2019-05-02T21:51:31.000Z,27.4
2019-05-02T21:52:46.000Z,27.4
2019-05-02T21:54:46.000Z,27.4
2019-05-02T21:56:31.000Z,27.5
2019-05-02T21:58:31.000Z,27.4
2019-05-02T21:59:46.000Z,27.4
2019-05-02T22:01:31.000Z,27.3
2019-05-02T22:03:31.000Z,27.1
2019-05-02T22:04:46.000Z,27.1
2019-05-02T22:06:31.000Z,27.2
2019-05-02T22:08:31.000Z,27.1
2019-05-02T22:10:31.000Z,27.1
2019-05-02T22:12:46.000Z,27
2019-05-02T22:13:46.000Z,27.1
2019-05-02T22:15:31.000Z,27.2
2019-05-02T22:16:32.000Z,27.2
2019-05-02T22:18:31.000Z,27.1
2019-05-02T22:20:31.000Z,27.1
2019-05-02T22:22:34.000Z,27
2019-05-02T22:24:46.000Z,27
2019-05-02T22:26:32.000Z,27
2019-05-02T22:28:32.000Z,27
2019-05-02T22:30:31.000Z,27
2019-05-02T22:31:31.000Z,27
2019-05-02T22:32:32.000Z,27
2019-05-02T22:34:31.000Z,26.9
2019-05-02T22:35:46.000Z,26.9
2019-05-02T22:37:32.000Z,26.9
2019-05-02T22:38:46.000Z,27
2019-05-02T22:40:31.000Z,27.1
2019-05-02T22:41:32.000Z,27.1
2019-05-02T22:43:32.000Z,27.1
2019-05-02T22:45:32.000Z,27.1
2019-05-02T22:47:32.000Z,27.1
2019-05-02T22:48:46.000Z,27.1
2019-05-02T22:50:32.000Z,27.2
2019-05-02T22:52:31.000Z,27.2
2019-05-02T22:53:31.000Z,27.1
2019-05-02T22:54:34.000Z,27.1
2019-05-02T22:56:46.000Z,27
2019-05-02T22:57:46.000Z,27
2019-05-02T22:59:46.000Z,27.1
2019-05-02T23:01:32.000Z,27.1
2019-05-02T23:03:32.000Z,27.1
2019-05-02T23:05:32.000Z,27.1
2019-05-02T23:07:46.000Z,26.9
2019-05-02T23:09:46.000Z,27
2019-05-02T23:11:33.000Z,27.1
2019-05-02T23:13:31.000Z,27.1
2019-05-02T23:15:32.000Z,27.1
2019-05-02T23:17:32.000Z,27
2019-05-02T23:19:46.000Z,27
2019-05-02T23:21:32.000Z,27
2019-05-02T23:23:32.000Z,27
2019-05-02T23:25:32.000Z,27
2019-05-02T23:26:46.000Z,27
2019-05-02T23:27:46.000Z,27.1
2019-05-02T23:29:46.000Z,27.3
2019-05-02T23:31:46.000Z,27.3
2019-05-02T23:33:31.000Z,27.4
2019-05-02T23:34:31.000Z,27.4
2019-05-02T23:36:32.000Z,27.3
2019-05-02T23:38:31.000Z,27.2
2019-05-02T23:40:46.000Z,27.1
2019-05-02T23:42:46.000Z,27.1
2019-05-02T23:44:46.000Z,27.2
2019-05-02T23:45:46.000Z,27.2
2019-05-02T23:46:46.000Z,27.2
2019-05-02T23:48:31.000Z,27.4
2019-05-02T23:50:46.000Z,27.3
2019-05-02T23:52:46.000Z,27.2
2019-05-02T23:54:31.000Z,27.3
2019-05-02T23:55:31.000Z,27.3
2019-05-02T23:57:31.000Z,27.2
2019-05-02T23:59:46.000Z,27.1
